sensor_id;sensor_type;location;lat;lon;timestamp;P1;durP1;ratioP1;P2;durP2;ratioP2
70842;SDS011;58469;52.312;16.970;2024-02-14T00:00:59;13.53;;;7.20;;
70842;SDS011;58469;52.312;16.970;2024-02-14T00:04:00;23.53;;;10.77;;
70842;SDS011;58469;52.312;16.970;2024-02-14T00:07:00;25.40;;;10.17;;
70842;SDS011;58469;52.312;16.970;2024-02-14T00:10:01;22.07;;;11.57;;
70842;SDS011;58469;52.312;16.970;2024-02-14T00:13:01;22.67;;;10.53;;
70842;SDS011;58469;52.312;16.970;2024-02-14T00:16:02;22.95;;;10.13;;
70842;SDS011;58469;52.312;16.970;2024-02-14T00:19:02;24.57;;;9.93;;
70842;SDS011;58469;52.312;16.970;2024-02-14T00:22:03;20.20;;;8.17;;
70842;SDS011;58469;52.312;16.970;2024-02-14T00:25:03;13.33;;;6.80;;
70842;SDS011;58469;52.312;16.970;2024-02-14T00:28:04;21.17;;;9.55;;
70842;SDS011;58469;52.312;16.970;2024-02-14T00:31:05;20.30;;;9.25;;
70842;SDS011;58469;52.312;16.970;2024-02-14T00:34:06;15.87;;;8.30;;
70842;SDS011;58469;52.312;16.970;2024-02-14T00:37:06;18.17;;;9.40;;
70842;SDS011;58469;52.312;16.970;2024-02-14T00:40:07;23.67;;;10.50;;
70842;SDS011;58469;52.312;16.970;2024-02-14T00:43:08;22.67;;;11.27;;
70842;SDS011;58469;52.312;16.970;2024-02-14T00:46:09;22.20;;;11.30;;
70842;SDS011;58469;52.312;16.970;2024-02-14T00:49:09;19.57;;;10.40;;
70842;SDS011;58469;52.312;16.970;2024-02-14T00:52:10;21.63;;;10.15;;
70842;SDS011;58469;52.312;16.970;2024-02-14T00:55:10;16.77;;;8.03;;
70842;SDS011;58469;52.312;16.970;2024-02-14T00:58:11;18.83;;;9.47;;
70842;SDS011;58469;52.312;16.970;2024-02-14T01:01:11;21.97;;;10.50;;
70842;SDS011;58469;52.312;16.970;2024-02-14T01:04:12;26.13;;;10.40;;
70842;SDS011;58469;52.312;16.970;2024-02-14T01:07:12;19.50;;;9.37;;
70842;SDS011;58469;52.312;16.970;2024-02-14T01:10:12;19.67;;;9.60;;
70842;SDS011;58469;52.312;16.970;2024-02-14T01:13:13;19.30;;;9.35;;
70842;SDS011;58469;52.312;16.970;2024-02-14T01:16:13;21.05;;;10.73;;
70842;SDS011;58469;52.312;16.970;2024-02-14T01:19:14;19.90;;;8.43;;
70842;SDS011;58469;52.312;16.970;2024-02-14T01:22:14;14.13;;;8.03;;
70842;SDS011;58469;52.312;16.970;2024-02-14T01:25:16;14.32;;;6.63;;
70842;SDS011;58469;52.312;16.970;2024-02-14T01:28:16;14.17;;;7.20;;
70842;SDS011;58469;52.312;16.970;2024-02-14T01:31:17;17.23;;;7.93;;
70842;SDS011;58469;52.312;16.970;2024-02-14T01:34:17;19.50;;;9.90;;
70842;SDS011;58469;52.312;16.970;2024-02-14T01:37:18;21.20;;;9.50;;
70842;SDS011;58469;52.312;16.970;2024-02-14T01:40:20;22.35;;;9.98;;
70842;SDS011;58469;52.312;16.970;2024-02-14T01:43:21;15.35;;;8.20;;
70842;SDS011;58469;52.312;16.970;2024-02-14T01:46:21;23.10;;;9.70;;
70842;SDS011;58469;52.312;16.970;2024-02-14T01:49:22;10.43;;;5.90;;
70842;SDS011;58469;52.312;16.970;2024-02-14T01:52:22;19.17;;;8.63;;
70842;SDS011;58469;52.312;16.970;2024-02-14T01:55:23;22.10;;;10.00;;
70842;SDS011;58469;52.312;16.970;2024-02-14T01:58:24;17.92;;;8.95;;
70842;SDS011;58469;52.312;16.970;2024-02-14T02:01:25;22.65;;;10.27;;
70842;SDS011;58469;52.312;16.970;2024-02-14T02:04:26;21.92;;;9.55;;
70842;SDS011;58469;52.312;16.970;2024-02-14T02:07:27;22.75;;;10.02;;
70842;SDS011;58469;52.312;16.970;2024-02-14T02:10:27;22.55;;;10.05;;
70842;SDS011;58469;52.312;16.970;2024-02-14T02:13:29;22.27;;;9.67;;
70842;SDS011;58469;52.312;16.970;2024-02-14T02:16:29;18.40;;;9.85;;
70842;SDS011;58469;52.312;16.970;2024-02-14T02:19:29;15.55;;;8.20;;
70842;SDS011;58469;52.312;16.970;2024-02-14T02:22:31;20.93;;;10.07;;
70842;SDS011;58469;52.312;16.970;2024-02-14T02:25:32;21.30;;;10.05;;
70842;SDS011;58469;52.312;16.970;2024-02-14T02:28:32;18.90;;;9.00;;
70842;SDS011;58469;52.312;16.970;2024-02-14T02:31:33;16.83;;;8.20;;
70842;SDS011;58469;52.312;16.970;2024-02-14T02:34:33;20.40;;;9.98;;
70842;SDS011;58469;52.312;16.970;2024-02-14T02:37:33;26.45;;;13.82;;
70842;SDS011;58469;52.312;16.970;2024-02-14T02:40:34;18.97;;;9.07;;
70842;SDS011;58469;52.312;16.970;2024-02-14T02:43:34;20.00;;;10.20;;
70842;SDS011;58469;52.312;16.970;2024-02-14T02:46:35;25.03;;;13.33;;
70842;SDS011;58469;52.312;16.970;2024-02-14T02:49:35;22.50;;;11.30;;
70842;SDS011;58469;52.312;16.970;2024-02-14T02:52:37;30.02;;;11.88;;
70842;SDS011;58469;52.312;16.970;2024-02-14T02:55:38;25.70;;;10.90;;
70842;SDS011;58469;52.312;16.970;2024-02-14T02:58:39;25.60;;;11.20;;
70842;SDS011;58469;52.312;16.970;2024-02-14T03:01:39;16.00;;;8.23;;
70842;SDS011;58469;52.312;16.970;2024-02-14T03:04:40;25.88;;;12.65;;
70842;SDS011;58469;52.312;16.970;2024-02-14T03:07:41;21.20;;;11.13;;
70842;SDS011;58469;52.312;16.970;2024-02-14T03:10:45;17.38;;;9.05;;
70842;SDS011;58469;52.312;16.970;2024-02-14T03:13:46;16.87;;;8.80;;
70842;SDS011;58469;52.312;16.970;2024-02-14T03:16:48;18.58;;;9.23;;
70842;SDS011;58469;52.312;16.970;2024-02-14T03:19:49;18.77;;;10.50;;
70842;SDS011;58469;52.312;16.970;2024-02-14T03:22:51;14.98;;;7.28;;
70842;SDS011;58469;52.312;16.970;2024-02-14T03:25:53;14.85;;;8.90;;
70842;SDS011;58469;52.312;16.970;2024-02-14T03:28:54;19.03;;;9.23;;
70842;SDS011;58469;52.312;16.970;2024-02-14T03:31:54;20.60;;;9.87;;
70842;SDS011;58469;52.312;16.970;2024-02-14T03:34:57;16.27;;;8.80;;
70842;SDS011;58469;52.312;16.970;2024-02-14T03:37:59;19.70;;;8.80;;
70842;SDS011;58469;52.312;16.970;2024-02-14T03:41:01;17.13;;;9.30;;
70842;SDS011;58469;52.312;16.970;2024-02-14T03:44:01;18.60;;;9.37;;
70842;SDS011;58469;52.312;16.970;2024-02-14T03:47:03;19.98;;;10.43;;
70842;SDS011;58469;52.312;16.970;2024-02-14T03:50:04;20.20;;;9.57;;
70842;SDS011;58469;52.312;16.970;2024-02-14T03:53:06;23.77;;;12.05;;
70842;SDS011;58469;52.312;16.970;2024-02-14T03:56:07;20.73;;;10.45;;
70842;SDS011;58469;52.312;16.970;2024-02-14T03:59:08;19.60;;;10.93;;
70842;SDS011;58469;52.312;16.970;2024-02-14T04:02:08;23.60;;;11.00;;
70842;SDS011;58469;52.312;16.970;2024-02-14T04:05:09;22.27;;;10.38;;
70842;SDS011;58469;52.312;16.970;2024-02-14T04:08:13;18.10;;;8.63;;
70842;SDS011;58469;52.312;16.970;2024-02-14T04:11:13;13.38;;;7.57;;
70842;SDS011;58469;52.312;16.970;2024-02-14T04:14:14;21.07;;;10.13;;
70842;SDS011;58469;52.312;16.970;2024-02-14T04:17:15;21.10;;;10.40;;
70842;SDS011;58469;52.312;16.970;2024-02-14T04:20:15;26.10;;;10.57;;
70842;SDS011;58469;52.312;16.970;2024-02-14T04:23:15;18.15;;;9.88;;
70842;SDS011;58469;52.312;16.970;2024-02-14T04:26:19;21.63;;;10.43;;
70842;SDS011;58469;52.312;16.970;2024-02-14T04:29:20;22.65;;;11.07;;
70842;SDS011;58469;52.312;16.970;2024-02-14T04:32:21;16.73;;;8.65;;
70842;SDS011;58469;52.312;16.970;2024-02-14T04:35:22;16.30;;;8.27;;
70842;SDS011;58469;52.312;16.970;2024-02-14T04:38:23;19.80;;;9.93;;
70842;SDS011;58469;52.312;16.970;2024-02-14T04:41:23;26.73;;;13.18;;
70842;SDS011;58469;52.312;16.970;2024-02-14T04:44:24;25.27;;;11.93;;
70842;SDS011;58469;52.312;16.970;2024-02-14T04:47:24;20.93;;;11.30;;
70842;SDS011;58469;52.312;16.970;2024-02-14T04:50:25;20.30;;;10.03;;
70842;SDS011;58469;52.312;16.970;2024-02-14T04:53:25;23.17;;;11.50;;
70842;SDS011;58469;52.312;16.970;2024-02-14T04:56:26;25.27;;;12.33;;
70842;SDS011;58469;52.312;16.970;2024-02-14T04:59:26;22.60;;;10.88;;
70842;SDS011;58469;52.312;16.970;2024-02-14T05:02:27;16.17;;;8.53;;
70842;SDS011;58469;52.312;16.970;2024-02-14T05:05:28;22.33;;;10.05;;
70842;SDS011;58469;52.312;16.970;2024-02-14T05:08:28;19.73;;;9.30;;
70842;SDS011;58469;52.312;16.970;2024-02-14T05:11:28;19.60;;;10.00;;
70842;SDS011;58469;52.312;16.970;2024-02-14T05:14:29;21.77;;;12.20;;
70842;SDS011;58469;52.312;16.970;2024-02-14T05:17:32;21.57;;;10.37;;
70842;SDS011;58469;52.312;16.970;2024-02-14T05:20:32;19.10;;;10.37;;
70842;SDS011;58469;52.312;16.970;2024-02-14T05:23:33;22.93;;;11.50;;
70842;SDS011;58469;52.312;16.970;2024-02-14T05:26:34;22.38;;;11.27;;
70842;SDS011;58469;52.312;16.970;2024-02-14T05:29:35;22.38;;;11.55;;
70842;SDS011;58469;52.312;16.970;2024-02-14T05:32:35;22.73;;;11.30;;
70842;SDS011;58469;52.312;16.970;2024-02-14T05:35:36;21.37;;;11.23;;
70842;SDS011;58469;52.312;16.970;2024-02-14T05:38:36;24.40;;;11.70;;
70842;SDS011;58469;52.312;16.970;2024-02-14T05:41:36;21.87;;;10.03;;
70842;SDS011;58469;52.312;16.970;2024-02-14T05:44:37;17.23;;;8.37;;
70842;SDS011;58469;52.312;16.970;2024-02-14T05:47:37;12.33;;;7.37;;
70842;SDS011;58469;52.312;16.970;2024-02-14T05:50:39;22.67;;;11.05;;
70842;SDS011;58469;52.312;16.970;2024-02-14T05:53:39;22.47;;;11.03;;
70842;SDS011;58469;52.312;16.970;2024-02-14T05:56:40;31.48;;;16.70;;
70842;SDS011;58469;52.312;16.970;2024-02-14T05:59:40;24.07;;;12.33;;
70842;SDS011;58469;52.312;16.970;2024-02-14T06:02:40;19.43;;;11.07;;
70842;SDS011;58469;52.312;16.970;2024-02-14T06:05:41;20.83;;;11.50;;
70842;SDS011;58469;52.312;16.970;2024-02-14T06:08:41;29.67;;;17.20;;
70842;SDS011;58469;52.312;16.970;2024-02-14T06:11:41;26.03;;;12.03;;
70842;SDS011;58469;52.312;16.970;2024-02-14T06:14:43;22.73;;;12.55;;
70842;SDS011;58469;52.312;16.970;2024-02-14T06:17:44;26.83;;;12.90;;
70842;SDS011;58469;52.312;16.970;2024-02-14T06:20:44;38.57;;;17.93;;
70842;SDS011;58469;52.312;16.970;2024-02-14T06:23:46;19.77;;;11.07;;
70842;SDS011;58469;52.312;16.970;2024-02-14T06:26:46;18.92;;;10.73;;
70842;SDS011;58469;52.312;16.970;2024-02-14T06:29:47;23.07;;;12.00;;
70842;SDS011;58469;52.312;16.970;2024-02-14T06:32:47;24.00;;;11.97;;
70842;SDS011;58469;52.312;16.970;2024-02-14T06:35:48;24.03;;;11.37;;
70842;SDS011;58469;52.312;16.970;2024-02-14T06:38:48;18.08;;;9.98;;
70842;SDS011;58469;52.312;16.970;2024-02-14T06:41:50;24.47;;;12.13;;
70842;SDS011;58469;52.312;16.970;2024-02-14T06:44:50;19.02;;;10.38;;
70842;SDS011;58469;52.312;16.970;2024-02-14T06:47:51;21.17;;;10.40;;
70842;SDS011;58469;52.312;16.970;2024-02-14T06:50:51;26.70;;;13.27;;
70842;SDS011;58469;52.312;16.970;2024-02-14T06:53:51;17.23;;;10.90;;
70842;SDS011;58469;52.312;16.970;2024-02-14T06:56:52;21.00;;;11.10;;
70842;SDS011;58469;52.312;16.970;2024-02-14T06:59:52;21.53;;;11.20;;
70842;SDS011;58469;52.312;16.970;2024-02-14T07:02:52;21.07;;;11.37;;
70842;SDS011;58469;52.312;16.970;2024-02-14T07:05:52;22.80;;;11.63;;
70842;SDS011;58469;52.312;16.970;2024-02-14T07:08:53;19.40;;;11.63;;
70842;SDS011;58469;52.312;16.970;2024-02-14T07:11:54;23.10;;;12.88;;
70842;SDS011;58469;52.312;16.970;2024-02-14T07:14:56;21.07;;;11.67;;
70842;SDS011;58469;52.312;16.970;2024-02-14T07:17:57;23.83;;;13.00;;
70842;SDS011;58469;52.312;16.970;2024-02-14T07:20:58;21.80;;;11.70;;
70842;SDS011;58469;52.312;16.970;2024-02-14T07:23:59;29.33;;;14.90;;
70842;SDS011;58469;52.312;16.970;2024-02-14T07:26:59;28.63;;;14.40;;
70842;SDS011;58469;52.312;16.970;2024-02-14T07:29:59;33.43;;;15.97;;
70842;SDS011;58469;52.312;16.970;2024-02-14T07:33:00;28.90;;;15.80;;
70842;SDS011;58469;52.312;16.970;2024-02-14T07:36:00;32.10;;;16.43;;
70842;SDS011;58469;52.312;16.970;2024-02-14T07:39:00;29.20;;;14.27;;
70842;SDS011;58469;52.312;16.970;2024-02-14T07:42:02;32.17;;;16.97;;
70842;SDS011;58469;52.312;16.970;2024-02-14T07:45:02;26.92;;;13.48;;
70842;SDS011;58469;52.312;16.970;2024-02-14T07:48:03;22.83;;;12.17;;
70842;SDS011;58469;52.312;16.970;2024-02-14T07:51:07;28.23;;;15.35;;
70842;SDS011;58469;52.312;16.970;2024-02-14T07:54:08;27.95;;;14.20;;
70842;SDS011;58469;52.312;16.970;2024-02-14T07:57:08;25.80;;;13.23;;
70842;SDS011;58469;52.312;16.970;2024-02-14T08:00:09;26.67;;;13.30;;
70842;SDS011;58469;52.312;16.970;2024-02-14T08:03:10;29.73;;;15.27;;
70842;SDS011;58469;52.312;16.970;2024-02-14T08:06:10;29.58;;;16.13;;
70842;SDS011;58469;52.312;16.970;2024-02-14T08:09:10;37.40;;;17.20;;
70842;SDS011;58469;52.312;16.970;2024-02-14T08:12:11;28.30;;;15.13;;
70842;SDS011;58469;52.312;16.970;2024-02-14T08:15:11;29.40;;;14.97;;
70842;SDS011;58469;52.312;16.970;2024-02-14T08:18:12;29.63;;;15.70;;
70842;SDS011;58469;52.312;16.970;2024-02-14T08:21:12;27.20;;;14.23;;
70842;SDS011;58469;52.312;16.970;2024-02-14T08:24:12;28.30;;;14.27;;
70842;SDS011;58469;52.312;16.970;2024-02-14T08:27:13;27.67;;;15.03;;
70842;SDS011;58469;52.312;16.970;2024-02-14T08:30:13;31.23;;;15.43;;
70842;SDS011;58469;52.312;16.970;2024-02-14T08:33:13;32.13;;;16.50;;
70842;SDS011;58469;52.312;16.970;2024-02-14T08:36:14;28.57;;;14.50;;
70842;SDS011;58469;52.312;16.970;2024-02-14T08:39:16;29.48;;;14.98;;
70842;SDS011;58469;52.312;16.970;2024-02-14T08:42:17;28.55;;;15.60;;
70842;SDS011;58469;52.312;16.970;2024-02-14T08:45:17;28.07;;;15.43;;
70842;SDS011;58469;52.312;16.970;2024-02-14T08:48:17;26.03;;;16.13;;
70842;SDS011;58469;52.312;16.970;2024-02-14T08:51:19;28.92;;;15.07;;
70842;SDS011;58469;52.312;16.970;2024-02-14T08:54:20;28.45;;;16.52;;
70842;SDS011;58469;52.312;16.970;2024-02-14T08:57:21;30.27;;;15.68;;
70842;SDS011;58469;52.312;16.970;2024-02-14T09:00:23;25.88;;;14.57;;
70842;SDS011;58469;52.312;16.970;2024-02-14T09:03:23;28.10;;;16.37;;
70842;SDS011;58469;52.312;16.970;2024-02-14T09:06:23;24.80;;;15.50;;
70842;SDS011;58469;52.312;16.970;2024-02-14T09:09:26;27.67;;;14.77;;
70842;SDS011;58469;52.312;16.970;2024-02-14T09:12:26;26.20;;;14.87;;
70842;SDS011;58469;52.312;16.970;2024-02-14T09:15:27;26.73;;;15.00;;
70842;SDS011;58469;52.312;16.970;2024-02-14T09:18:27;27.07;;;15.17;;
70842;SDS011;58469;52.312;16.970;2024-02-14T09:21:30;29.07;;;15.67;;
70842;SDS011;58469;52.312;16.970;2024-02-14T09:24:30;30.60;;;16.60;;
70842;SDS011;58469;52.312;16.970;2024-02-14T09:27:31;26.37;;;14.90;;
70842;SDS011;58469;52.312;16.970;2024-02-14T09:30:32;25.70;;;14.40;;
70842;SDS011;58469;52.312;16.970;2024-02-14T09:33:33;22.70;;;12.47;;
70842;SDS011;58469;52.312;16.970;2024-02-14T09:36:34;21.50;;;12.27;;
70842;SDS011;58469;52.312;16.970;2024-02-14T09:39:34;20.98;;;12.15;;
70842;SDS011;58469;52.312;16.970;2024-02-14T09:42:38;20.63;;;11.75;;
70842;SDS011;58469;52.312;16.970;2024-02-14T09:45:41;22.95;;;12.43;;
70842;SDS011;58469;52.312;16.970;2024-02-14T09:48:45;20.35;;;12.05;;
70842;SDS011;58469;52.312;16.970;2024-02-14T09:51:46;19.88;;;10.93;;
70842;SDS011;58469;52.312;16.970;2024-02-14T09:54:48;20.43;;;11.13;;
70842;SDS011;58469;52.312;16.970;2024-02-14T09:57:51;17.85;;;11.27;;
70842;SDS011;58469;52.312;16.970;2024-02-14T10:00:52;17.17;;;11.50;;
70842;SDS011;58469;52.312;16.970;2024-02-14T10:03:53;15.10;;;9.77;;
70842;SDS011;58469;52.312;16.970;2024-02-14T10:06:54;20.33;;;11.18;;
70842;SDS011;58469;52.312;16.970;2024-02-14T10:10:05;18.75;;;11.13;;
70842;SDS011;58469;52.312;16.970;2024-02-14T10:13:07;19.30;;;11.65;;
70842;SDS011;58469;52.312;16.970;2024-02-14T10:16:07;20.77;;;11.57;;
70842;SDS011;58469;52.312;16.970;2024-02-14T10:19:15;19.38;;;10.75;;
70842;SDS011;58469;52.312;16.970;2024-02-14T10:22:16;19.83;;;11.67;;
70842;SDS011;58469;52.312;16.970;2024-02-14T10:25:17;16.60;;;11.13;;
70842;SDS011;58469;52.312;16.970;2024-02-14T10:28:20;18.63;;;11.57;;
70842;SDS011;58469;52.312;16.970;2024-02-14T10:31:23;17.70;;;10.45;;
70842;SDS011;58469;52.312;16.970;2024-02-14T10:34:25;18.80;;;10.77;;
70842;SDS011;58469;52.312;16.970;2024-02-14T10:37:26;19.92;;;10.77;;
70842;SDS011;58469;52.312;16.970;2024-02-14T10:40:29;17.27;;;10.18;;
70842;SDS011;58469;52.312;16.970;2024-02-14T10:43:32;16.63;;;10.73;;
70842;SDS011;58469;52.312;16.970;2024-02-14T10:46:34;16.88;;;10.05;;
70842;SDS011;58469;52.312;16.970;2024-02-14T10:49:37;16.58;;;9.88;;
70842;SDS011;58469;52.312;16.970;2024-02-14T10:52:43;17.97;;;10.30;;
70842;SDS011;58469;52.312;16.970;2024-02-14T10:55:50;15.30;;;9.23;;
70842;SDS011;58469;52.312;16.970;2024-02-14T10:58:51;17.27;;;9.80;;
70842;SDS011;58469;52.312;16.970;2024-02-14T11:02:01;14.93;;;9.55;;
70842;SDS011;58469;52.312;16.970;2024-02-14T11:05:02;15.23;;;8.82;;
70842;SDS011;58469;52.312;16.970;2024-02-14T11:08:09;16.10;;;9.82;;
70842;SDS011;58469;52.312;16.970;2024-02-14T11:11:11;13.40;;;8.30;;
70842;SDS011;58469;52.312;16.970;2024-02-14T11:14:15;11.25;;;8.02;;
70842;SDS011;58469;52.312;16.970;2024-02-14T11:17:16;14.30;;;8.07;;
70842;SDS011;58469;52.312;16.970;2024-02-14T11:20:31;14.98;;;8.27;;
70842;SDS011;58469;52.312;16.970;2024-02-14T11:23:33;14.47;;;8.80;;
70842;SDS011;58469;52.312;16.970;2024-02-14T11:27:09;11.53;;;7.80;;
70842;SDS011;58469;52.312;16.970;2024-02-14T11:30:02;16.70;;;8.95;;
70842;SDS011;58469;52.312;16.970;2024-02-14T11:36:18;12.00;;;7.50;;
70842;SDS011;58469;52.312;16.970;2024-02-14T11:39:20;8.80;;;6.00;;
70842;SDS011;58469;52.312;16.970;2024-02-14T11:42:21;10.20;;;7.20;;
70842;SDS011;58469;52.312;16.970;2024-02-14T11:45:21;12.47;;;6.80;;
70842;SDS011;58469;52.312;16.970;2024-02-14T11:48:22;12.43;;;6.97;;
70842;SDS011;58469;52.312;16.970;2024-02-14T11:51:25;11.57;;;6.50;;
70842;SDS011;58469;52.312;16.970;2024-02-14T11:54:27;9.90;;;5.82;;
70842;SDS011;58469;52.312;16.970;2024-02-14T11:57:28;11.50;;;6.60;;
70842;SDS011;58469;52.312;16.970;2024-02-14T12:00:28;7.87;;;5.40;;
70842;SDS011;58469;52.312;16.970;2024-02-14T12:03:28;10.93;;;7.50;;
70842;SDS011;58469;52.312;16.970;2024-02-14T12:06:29;8.97;;;5.47;;
70842;SDS011;58469;52.312;16.970;2024-02-14T12:09:36;8.30;;;4.50;;
70842;SDS011;58469;52.312;16.970;2024-02-14T12:12:37;7.97;;;4.97;;
70842;SDS011;58469;52.312;16.970;2024-02-14T12:15:38;8.13;;;5.30;;
70842;SDS011;58469;52.312;16.970;2024-02-14T12:18:44;11.18;;;6.07;;
70842;SDS011;58469;52.312;16.970;2024-02-14T12:21:45;9.80;;;6.43;;
70842;SDS011;58469;52.312;16.970;2024-02-14T12:24:46;9.93;;;6.20;;
70842;SDS011;58469;52.312;16.970;2024-02-14T12:27:51;10.70;;;6.30;;
70842;SDS011;58469;52.312;16.970;2024-02-14T12:30:51;11.20;;;6.47;;
70842;SDS011;58469;52.312;16.970;2024-02-14T12:33:56;9.57;;;6.65;;
70842;SDS011;58469;52.312;16.970;2024-02-14T12:36:59;11.05;;;7.13;;
70842;SDS011;58469;52.312;16.970;2024-02-14T12:39:59;9.80;;;6.80;;
70842;SDS011;58469;52.312;16.970;2024-02-14T12:43:00;9.93;;;6.40;;
70842;SDS011;58469;52.312;16.970;2024-02-14T12:46:00;11.30;;;6.70;;
70842;SDS011;58469;52.312;16.970;2024-02-14T12:49:03;10.53;;;6.70;;
70842;SDS011;58469;52.312;16.970;2024-02-14T12:52:04;11.32;;;6.38;;
70842;SDS011;58469;52.312;16.970;2024-02-14T12:55:04;8.83;;;6.17;;
70842;SDS011;58469;52.312;16.970;2024-02-14T12:58:05;9.83;;;5.70;;
70842;SDS011;58469;52.312;16.970;2024-02-14T13:01:05;7.57;;;4.72;;
70842;SDS011;58469;52.312;16.970;2024-02-14T13:04:06;7.70;;;5.33;;
70842;SDS011;58469;52.312;16.970;2024-02-14T13:07:09;9.88;;;5.50;;
70842;SDS011;58469;52.312;16.970;2024-02-14T13:10:10;11.50;;;6.13;;
70842;SDS011;58469;52.312;16.970;2024-02-14T13:13:11;9.02;;;5.85;;
70842;SDS011;58469;52.312;16.970;2024-02-14T13:16:12;9.10;;;5.65;;
70842;SDS011;58469;52.312;16.970;2024-02-14T13:19:12;9.67;;;6.07;;
70842;SDS011;58469;52.312;16.970;2024-02-14T13:22:13;8.63;;;5.67;;
70842;SDS011;58469;52.312;16.970;2024-02-14T13:25:14;8.10;;;5.78;;
70842;SDS011;58469;52.312;16.970;2024-02-14T13:28:14;9.17;;;5.57;;
70842;SDS011;58469;52.312;16.970;2024-02-14T13:31:15;9.03;;;5.33;;
70842;SDS011;58469;52.312;16.970;2024-02-14T13:34:16;9.98;;;6.10;;
70842;SDS011;58469;52.312;16.970;2024-02-14T13:37:19;12.38;;;6.13;;
70842;SDS011;58469;52.312;16.970;2024-02-14T13:40:20;10.70;;;6.28;;
70842;SDS011;58469;52.312;16.970;2024-02-14T13:43:21;9.10;;;6.67;;
70842;SDS011;58469;52.312;16.970;2024-02-14T13:46:21;8.53;;;5.90;;
70842;SDS011;58469;52.312;16.970;2024-02-14T13:49:22;12.47;;;7.17;;
70842;SDS011;58469;52.312;16.970;2024-02-14T13:52:22;9.65;;;6.38;;
70842;SDS011;58469;52.312;16.970;2024-02-14T13:55:23;8.07;;;4.83;;
70842;SDS011;58469;52.312;16.970;2024-02-14T13:58:24;11.73;;;7.13;;
70842;SDS011;58469;52.312;16.970;2024-02-14T14:01:25;8.93;;;5.20;;
70842;SDS011;58469;52.312;16.970;2024-02-14T14:04:26;10.48;;;5.97;;
70842;SDS011;58469;52.312;16.970;2024-02-14T14:07:27;13.30;;;6.57;;
70842;SDS011;58469;52.312;16.970;2024-02-14T14:10:30;12.95;;;7.47;;
70842;SDS011;58469;52.312;16.970;2024-02-14T14:13:30;11.03;;;6.30;;
70842;SDS011;58469;52.312;16.970;2024-02-14T14:16:33;12.95;;;6.60;;
70842;SDS011;58469;52.312;16.970;2024-02-14T14:19:33;9.43;;;6.67;;
70842;SDS011;58469;52.312;16.970;2024-02-14T14:22:34;9.30;;;6.33;;
70842;SDS011;58469;52.312;16.970;2024-02-14T14:25:34;12.73;;;6.97;;
70842;SDS011;58469;52.312;16.970;2024-02-14T14:28:35;11.70;;;7.47;;
70842;SDS011;58469;52.312;16.970;2024-02-14T14:31:35;11.07;;;7.60;;
70842;SDS011;58469;52.312;16.970;2024-02-14T14:34:36;10.27;;;6.73;;
70842;SDS011;58469;52.312;16.970;2024-02-14T14:37:36;12.77;;;6.70;;
70842;SDS011;58469;52.312;16.970;2024-02-14T14:40:37;11.95;;;6.90;;
70842;SDS011;58469;52.312;16.970;2024-02-14T14:43:37;12.55;;;6.95;;
70842;SDS011;58469;52.312;16.970;2024-02-14T14:46:37;13.07;;;6.50;;
70842;SDS011;58469;52.312;16.970;2024-02-14T14:49:42;13.63;;;6.60;;
70842;SDS011;58469;52.312;16.970;2024-02-14T14:52:45;10.52;;;6.22;;
70842;SDS011;58469;52.312;16.970;2024-02-14T14:55:55;13.13;;;6.90;;
70842;SDS011;58469;52.312;16.970;2024-02-14T14:58:56;11.18;;;6.20;;
70842;SDS011;58469;52.312;16.970;2024-02-14T15:01:58;14.65;;;7.03;;
70842;SDS011;58469;52.312;16.970;2024-02-14T15:04:58;9.13;;;5.53;;
70842;SDS011;58469;52.312;16.970;2024-02-14T15:07:58;11.37;;;7.77;;
70842;SDS011;58469;52.312;16.970;2024-02-14T15:10:59;10.07;;;6.60;;
70842;SDS011;58469;52.312;16.970;2024-02-14T15:13:59;14.63;;;9.20;;
70842;SDS011;58469;52.312;16.970;2024-02-14T15:17:00;16.20;;;7.33;;
70842;SDS011;58469;52.312;16.970;2024-02-14T15:20:00;11.57;;;7.78;;
70842;SDS011;58469;52.312;16.970;2024-02-14T15:23:02;13.63;;;8.35;;
70842;SDS011;58469;52.312;16.970;2024-02-14T15:26:03;12.20;;;7.25;;
70842;SDS011;58469;52.312;16.970;2024-02-14T15:29:06;9.17;;;5.47;;
70842;SDS011;58469;52.312;16.970;2024-02-14T15:32:25;16.08;;;8.27;;
70842;SDS011;58469;52.312;16.970;2024-02-14T15:35:44;12.43;;;7.28;;
70842;SDS011;58469;52.312;16.970;2024-02-14T15:38:44;14.97;;;7.97;;
70842;SDS011;58469;52.312;16.970;2024-02-14T15:41:44;11.40;;;6.97;;
70842;SDS011;58469;52.312;16.970;2024-02-14T15:44:45;14.50;;;7.63;;
70842;SDS011;58469;52.312;16.970;2024-02-14T15:47:46;13.50;;;8.13;;
70842;SDS011;58469;52.312;16.970;2024-02-14T15:50:47;15.80;;;7.82;;
70842;SDS011;58469;52.312;16.970;2024-02-14T15:53:47;13.47;;;8.10;;
70842;SDS011;58469;52.312;16.970;2024-02-14T15:56:48;13.57;;;7.80;;
70842;SDS011;58469;52.312;16.970;2024-02-14T15:59:48;14.77;;;7.82;;
70842;SDS011;58469;52.312;16.970;2024-02-14T16:02:49;13.40;;;7.47;;
70842;SDS011;58469;52.312;16.970;2024-02-14T16:05:49;19.27;;;9.97;;
70842;SDS011;58469;52.312;16.970;2024-02-14T16:08:49;16.40;;;8.27;;
70842;SDS011;58469;52.312;16.970;2024-02-14T16:11:52;14.95;;;7.80;;
70842;SDS011;58469;52.312;16.970;2024-02-14T16:14:53;15.13;;;7.93;;
70842;SDS011;58469;52.312;16.970;2024-02-14T16:17:53;21.45;;;10.73;;
70842;SDS011;58469;52.312;16.970;2024-02-14T16:20:54;18.87;;;10.30;;
70842;SDS011;58469;52.312;16.970;2024-02-14T16:23:54;21.30;;;10.40;;
70842;SDS011;58469;52.312;16.970;2024-02-14T16:26:55;19.07;;;9.50;;
70842;SDS011;58469;52.312;16.970;2024-02-14T16:29:55;15.33;;;7.83;;
70842;SDS011;58469;52.312;16.970;2024-02-14T16:32:56;23.30;;;11.43;;
70842;SDS011;58469;52.312;16.970;2024-02-14T16:35:56;20.83;;;9.83;;
70842;SDS011;58469;52.312;16.970;2024-02-14T16:38:58;16.88;;;8.57;;
70842;SDS011;58469;52.312;16.970;2024-02-14T16:41:58;19.17;;;9.47;;
70842;SDS011;58469;52.312;16.970;2024-02-14T16:44:59;14.77;;;7.87;;
70842;SDS011;58469;52.312;16.970;2024-02-14T16:48:06;15.35;;;8.07;;
70842;SDS011;58469;52.312;16.970;2024-02-14T16:51:10;19.55;;;9.73;;
70842;SDS011;58469;52.312;16.970;2024-02-14T16:54:13;18.70;;;9.38;;
70842;SDS011;58469;52.312;16.970;2024-02-14T16:57:14;16.97;;;9.63;;
70842;SDS011;58469;52.312;16.970;2024-02-14T17:00:14;16.90;;;9.23;;
70842;SDS011;58469;52.312;16.970;2024-02-14T17:03:15;18.10;;;10.38;;
70842;SDS011;58469;52.312;16.970;2024-02-14T17:06:16;14.63;;;7.53;;
70842;SDS011;58469;52.312;16.970;2024-02-14T17:09:17;15.17;;;8.60;;
70842;SDS011;58469;52.312;16.970;2024-02-14T17:12:18;15.63;;;9.60;;
70842;SDS011;58469;52.312;16.970;2024-02-14T17:15:18;16.10;;;8.90;;
70842;SDS011;58469;52.312;16.970;2024-02-14T17:18:19;20.13;;;10.57;;
70842;SDS011;58469;52.312;16.970;2024-02-14T17:21:20;19.88;;;10.50;;
70842;SDS011;58469;52.312;16.970;2024-02-14T17:24:20;19.60;;;11.48;;
70842;SDS011;58469;52.312;16.970;2024-02-14T17:27:23;18.07;;;10.93;;
70842;SDS011;58469;52.312;16.970;2024-02-14T17:30:23;18.63;;;10.60;;
70842;SDS011;58469;52.312;16.970;2024-02-14T17:33:23;23.75;;;12.48;;
70842;SDS011;58469;52.312;16.970;2024-02-14T17:36:24;19.02;;;11.23;;